ADDS METAR Data

Data at: 0745 UTC 24 Oct 2017

METAR for:KIZG (Fryeburg/Eastern Slo, ME, US)
Text:KIZG 240739Z AUTO 00000KT 1SM BR VV003 14/14 A3010 RMK AO2 RAE0655 P0000 T01390139 $
Temperature: 13.9°C ( 57°F)
Dewpoint: 13.9°C ( 57°F) [RH = 100%]
Pressure (altimeter):30.10 inches Hg (1019.4 mb)
Winds:calm
Visibility: 1.00 sm ( 1.61 km)
Ceiling:indefinite ceiling with vertical visibility of 300 feet AGL
Clouds:obscured sky
Weather:BR (mist)
QC Flag:automated observation with no human augmentation; SOME DATA ABOVE MAY BE INACCURATE!!!"$" is an indication the sensor requires maintenance.